Time;durP1;ratioP1;P1;durP2;ratioP2;P2;SDS_P1;SDS_P2;PMS_P1;PMS_P2;Temp;Humidity;BMP_temperature;BMP_pressure;BME280_temperature;BME280_humidity;BME280_pressure;Samples;Min_cycle;Max_cycle;Signal;HPM_P1;HPM_P2
2022/06/15 00:02:31;;;;;;;4.78;1.65;;;;;;;14.38;69.53;100259.19;4465506;32;34899;-76
2022/06/15 00:05:19;;;;;;;4.28;1.80;;;;;;;14.93;66.74;100257.81;4455044;32;33180;-75
2022/06/15 00:08:06;;;;;;;4.62;1.70;;;;;;;15.11;65.52;100266.88;4450693;32;34026;-75
2022/06/15 00:10:52;;;;;;;6.55;1.70;;;;;;;15.18;64.73;100269.97;4450144;32;35025;-75
2022/06/15 00:13:44;;;;;;;4.78;2.20;;;;;;;15.39;63.89;100255.47;4464858;32;34580;-75
2022/06/15 00:16:31;;;;;;;6.30;1.60;;;;;;;15.43;63.99;100264.75;4460948;32;34762;-75
2022/06/15 00:19:18;;;;;;;4.68;1.67;;;;;;;15.40;64.30;100263.44;4465607;32;35232;-75
2022/06/15 00:22:05;;;;;;;3.83;1.58;;;;;;;15.44;64.07;100271.88;4450307;32;36104;-75
2022/06/15 00:24:52;;;;;;;2.97;1.73;;;;;;;15.32;64.30;100260.72;4457441;32;34542;-75
2022/06/15 00:27:38;;;;;;;3.05;1.67;;;;;;;15.33;64.81;100262.31;4456245;32;34837;-75
2022/06/15 00:30:25;;;;;;;3.95;1.67;;;;;;;15.29;64.92;100259.41;4459500;32;34618;-75
2022/06/15 00:33:12;;;;;;;3.08;1.58;;;;;;;15.21;65.33;100252.75;4464508;32;34904;-75
2022/06/15 00:36:05;;;;;;;2.37;1.37;;;;;;;15.17;65.58;100254.56;4449616;32;33272;-75
2022/06/15 00:38:55;;;;;;;3.03;1.50;;;;;;;15.02;65.91;100258.59;4451483;32;35170;-75
2022/06/15 00:41:42;;;;;;;3.78;1.60;;;;;;;14.96;66.52;100257.16;4439628;32;36361;-75
2022/06/15 00:44:35;;;;;;;3.08;1.48;;;;;;;15.05;65.31;100260.75;4455422;32;35024;-75
2022/06/15 00:47:25;;;;;;;3.75;1.35;;;;;;;15.05;64.09;100258.00;4453314;32;34512;-75
2022/06/15 00:50:21;;;;;;;2.22;1.20;;;;;;;14.75;65.35;100257.00;4446497;32;34111;-75
2022/06/15 00:53:08;;;;;;;2.60;2.03;;;;;;;14.72;65.26;100254.91;4438194;32;35699;-75
2022/06/15 00:55:55;;;;;;;3.62;1.60;;;;;;;14.61;65.11;100259.09;4452125;32;34883;-75
2022/06/15 00:58:44;;;;;;;4.62;1.80;;;;;;;14.53;65.85;100248.88;4452447;32;34247;-75
2022/06/15 01:01:30;;;;;;;3.65;1.55;;;;;;;14.34;66.57;100258.22;4444594;32;34144;-75
2022/06/15 01:04:19;;;;;;;5.68;1.60;;;;;;;14.45;66.21;100268.94;4464202;32;34690;-75
2022/06/15 01:07:21;;;;;;;2.42;1.25;;;;;;;14.17;66.81;100271.94;4441945;32;35900;-76
2022/06/15 01:10:38;;;;;;;4.60;1.42;;;;;;;14.00;67.67;100267.19;4451239;32;33404;-75
2022/06/15 01:13:41;;;;;;;2.22;1.50;;;;;;;14.28;67.03;100264.19;4453644;32;33846;-76
2022/06/15 01:16:37;;;;;;;5.47;1.80;;;;;;;14.16;68.18;100264.81;4441881;32;35617;-76
2022/06/15 01:20:01;;;;;;;2.92;1.55;;;;;;;14.11;68.47;100273.22;4451494;32;35953;-76
2022/06/15 01:22:53;;;;;;;4.05;1.45;;;;;;;14.64;66.07;100277.75;4453436;32;34611;-75
2022/06/15 01:25:41;;;;;;;2.95;1.62;;;;;;;14.70;64.79;100276.47;4457921;32;34692;-75
2022/06/15 01:28:33;;;;;;;3.45;1.37;;;;;;;14.92;63.70;100274.72;4454550;32;35646;-75
2022/06/15 01:31:40;;;;;;;3.62;1.50;;;;;;;14.91;63.93;100284.09;4452635;32;35026;-75
2022/06/15 01:34:32;;;;;;;4.65;1.62;;;;;;;14.76;64.47;100277.94;4453024;32;34255;-75
2022/06/15 01:37:52;;;;;;;2.58;1.65;;;;;;;14.10;66.97;100275.16;4458904;32;34155;-75
2022/06/15 01:40:40;;;;;;;5.22;1.70;;;;;;;13.22;73.37;100280.50;4443132;32;34670;-75
2022/06/15 01:43:32;;;;;;;3.50;1.98;;;;;;;13.64;70.48;100272.88;4447119;32;36181;-75
2022/06/15 01:46:19;;;;;;;3.37;1.67;;;;;;;13.25;72.11;100275.22;4442379;32;35396;-75
2022/06/15 01:49:08;;;;;;;5.12;1.60;;;;;;;13.35;70.95;100284.34;4437742;32;34599;-76
2022/06/15 01:51:57;;;;;;;3.47;1.35;;;;;;;13.68;69.82;100279.34;4462112;32;34846;-76
2022/06/15 01:54:52;;;;;;;2.40;1.40;;;;;;;13.63;69.79;100280.31;4446158;32;34990;-75
2022/06/15 01:57:40;;;;;;;2.75;1.40;;;;;;;14.06;66.99;100279.69;4461261;32;34580;-75
2022/06/15 02:00:27;;;;;;;1.80;1.30;;;;;;;14.22;66.17;100282.81;4462912;32;34176;-76
2022/06/15 02:03:28;;;;;;;3.70;1.48;;;;;;;14.23;65.84;100280.87;4451810;32;35574;-76
2022/06/15 02:06:33;;;;;;;3.80;1.92;;;;;;;14.19;66.04;100280.72;4461532;32;35004;-76
2022/06/15 02:09:37;;;;;;;3.08;1.77;;;;;;;14.16;66.54;100278.59;4440345;32;35470;-76
2022/06/15 02:12:32;;;;;;;5.22;1.58;;;;;;;14.06;67.48;100281.63;4457379;32;34116;-75
2022/06/15 02:15:21;;;;;;;4.07;1.77;;;;;;;14.16;67.70;100282.16;4437398;32;34742;-76
2022/06/15 02:18:11;;;;;;;3.45;1.77;;;;;;;14.23;67.23;100280.87;4448880;32;35874;-76
2022/06/15 02:21:01;;;;;;;2.70;1.60;;;;;;;13.89;68.81;100279.62;4438534;32;35382;-76
2022/06/15 02:23:49;;;;;;;3.83;1.90;;;;;;;13.92;69.25;100277.06;4449801;32;34154;-75
2022/06/15 02:26:38;;;;;;;3.37;1.50;;;;;;;13.89;69.63;100274.94;4450015;32;34614;-76
2022/06/15 02:29:27;;;;;;;2.87;1.65;;;;;;;13.92;69.35;100287.25;4458461;32;35026;-75
2022/06/15 02:32:16;;;;;;;3.00;1.50;;;;;;;13.83;68.54;100284.47;4448105;32;34689;-75
2022/06/15 02:35:04;;;;;;;3.00;1.73;;;;;;;13.76;68.38;100288.81;4463654;32;34656;-75
2022/06/15 02:37:52;;;;;;;3.30;1.58;;;;;;;13.79;67.87;100283.47;4464527;32;34629;-76
2022/06/15 02:40:40;;;;;;;7.55;1.50;;;;;;;13.80;66.42;100278.75;4454115;32;35615;-76
2022/06/15 02:43:29;;;;;;;3.33;1.30;;;;;;;13.69;67.55;100278.25;4464035;32;34552;-76
2022/06/15 02:46:17;;;;;;;1.55;1.20;;;;;;;13.73;66.23;100271.78;4449671;32;34986;-75
2022/06/15 02:49:06;;;;;;;2.55;1.40;;;;;;;13.67;65.69;100269.47;4439181;32;34113;-75
2022/06/15 02:51:59;;;;;;;5.78;1.58;;;;;;;13.62;66.63;100273.16;4438097;32;34534;-76
2022/06/15 02:54:50;;;;;;;2.90;1.70;;;;;;;13.62;66.30;100278.69;4457943;32;34940;-75
2022/06/15 02:58:06;;;;;;;2.78;1.50;;;;;;;13.55;66.07;100283.84;4437107;32;33741;-76
2022/06/15 03:00:55;;;;;;;2.85;1.60;;;;;;;13.63;65.74;100279.50;4454812;32;35627;-76
2022/06/15 03:03:42;;;;;;;2.80;1.42;;;;;;;13.64;65.49;100281.94;4450446;32;35651;-76
2022/06/15 03:06:31;;;;;;;3.60;1.30;;;;;;;13.51;66.43;100282.81;4445912;32;35516;-76
2022/06/15 03:09:17;;;;;;;5.37;1.75;;;;;;;13.26;67.11;100285.13;4456702;32;34167;-75
2022/06/15 03:12:04;;;;;;;3.47;1.50;;;;;;;12.97;68.13;100291.00;4446275;32;34578;-76
2022/06/15 03:14:54;;;;;;;4.57;1.50;;;;;;;13.19;67.45;100292.13;4453185;32;35021;-75
2022/06/15 03:17:41;;;;;;;2.33;1.30;;;;;;;13.43;66.75;100292.69;4457176;32;34996;-76
2022/06/15 03:20:30;;;;;;;3.45;1.40;;;;;;;13.53;65.97;100296.28;4453834;32;34182;-76
2022/06/15 03:23:17;;;;;;;3.60;1.42;;;;;;;13.54;66.10;100293.22;4460624;32;35562;-76
2022/06/15 03:26:06;;;;;;;6.28;1.60;;;;;;;13.61;65.96;100295.53;4453979;32;35166;-76
2022/06/15 03:28:52;;;;;;;4.37;1.70;;;;;;;13.35;67.23;100295.34;4449013;32;34347;-76
2022/06/15 03:31:39;;;;;;;3.10;1.50;;;;;;;13.72;65.92;100294.13;4465239;32;33911;-75
2022/06/15 03:34:26;;;;;;;6.40;1.62;;;;;;;13.54;66.03;100298.72;4450625;32;35246;-76
2022/06/15 03:37:13;;;;;;;3.65;1.60;;;;;;;13.53;66.75;100296.28;4454791;32;34698;-75
2022/06/15 03:39:59;;;;;;;3.03;1.50;;;;;;;12.63;70.28;100297.00;4439951;32;33265;-75
2022/06/15 03:42:51;;;;;;;4.95;1.40;;;;;;;12.56;70.26;100293.88;4451944;32;34033;-75
2022/06/15 03:45:39;;;;;;;2.72;1.60;;;;;;;12.82;68.22;100299.59;4452121;32;35567;-75
2022/06/15 03:48:26;;;;;;;4.22;1.70;;;;;;;12.20;72.50;100291.84;4464919;32;34676;-75
2022/06/15 03:51:13;;;;;;;3.05;1.55;;;;;;;12.82;70.58;100294.09;4450367;32;35075;-76
2022/06/15 03:54:01;;;;;;;3.22;1.30;;;;;;;12.93;70.06;100306.50;4460128;32;33080;-76
2022/06/15 03:56:49;;;;;;;4.10;1.80;;;;;;;13.78;67.24;100292.88;4449843;32;34820;-75
2022/06/15 03:59:37;;;;;;;6.43;1.60;;;;;;;13.76;66.46;100300.63;4463966;32;35877;-75
2022/06/15 04:02:24;;;;;;;3.53;1.70;;;;;;;13.38;67.41;100301.06;4455395;32;34648;-75
2022/06/15 04:05:18;;;;;;;3.75;1.52;;;;;;;14.02;66.46;100303.50;4459377;32;35473;-75
2022/06/15 04:14:29;;;;;;;3.33;1.50;;;;;;;14.29;65.44;100296.97;4459761;32;35433;-76
2022/06/15 04:17:18;;;;;;;5.25;1.70;;;;;;;14.60;64.45;100301.63;4449931;32;34183;-76
2022/06/15 04:23:18;;;;;;;3.00;1.50;;;;;;;13.66;67.19;100300.88;4452820;32;35044;-76
2022/06/15 04:26:07;;;;;;;5.10;1.45;;;;;;;13.98;66.77;100305.28;4446801;32;35343;-76
2022/06/15 04:28:55;;;;;;;3.72;1.23;;;;;;;13.67;67.73;100308.03;4443660;32;34045;-76
2022/06/15 04:31:42;;;;;;;3.10;1.70;;;;;;;13.58;68.50;100307.19;4458657;32;34145;-76
2022/06/15 04:34:31;;;;;;;4.62;1.67;;;;;;;14.03;67.07;100298.78;4463835;32;35556;-77
2022/06/15 04:37:19;;;;;;;3.17;1.50;;;;;;;13.01;71.15;100314.00;4462910;32;34614;-78
2022/06/15 04:40:08;;;;;;;5.57;1.85;;;;;;;13.34;70.69;100301.97;4452248;32;35009;-78
2022/06/15 04:42:58;;;;;;;7.80;1.70;;;;;;;13.12;72.32;100302.75;4446229;32;34567;-78
2022/06/15 04:45:49;;;;;;;4.13;1.83;;;;;;;13.92;67.20;100310.12;4446493;32;35163;-78
2022/06/15 04:48:39;;;;;;;;;;;;;;;14.02;66.54;100302.69;4452245;32;34165;-78
2022/06/15 04:51:29;;;;;;;4.70;1.42;;;;;;;14.35;65.94;100301.19;4438420;32;34958;-77
2022/06/15 04:54:16;;;;;;;6.18;2.08;;;;;;;13.87;68.02;100299.22;4439546;32;34598;-77
2022/06/15 04:57:04;;;;;;;3.72;1.45;;;;;;;14.03;68.76;100310.66;4463091;32;35080;-78
2022/06/15 04:59:50;;;;;;;4.97;1.58;;;;;;;13.68;70.00;100313.22;4450186;32;35338;-78
2022/06/15 05:02:37;;;;;;;3.60;1.50;;;;;;;14.07;69.27;100311.63;4449504;32;33642;-78
2022/06/15 05:05:26;;;;;;;4.00;1.55;;;;;;;14.39;69.20;100310.44;4464223;32;34338;-78
2022/06/15 05:08:14;;;;;;;9.13;1.70;;;;;;;14.59;67.12;100313.75;4454358;32;34909;-78
2022/06/15 05:11:01;;;;;;;3.15;1.58;;;;;;;14.16;69.05;100306.97;4461763;32;34274;-78
2022/06/15 05:13:50;;;;;;;5.53;1.55;;;;;;;14.74;67.01;100318.84;4441714;32;33821;-78
2022/06/15 05:16:38;;;;;;;3.17;1.23;;;;;;;15.61;63.43;100315.22;4463716;32;34620;-83
2022/06/15 05:19:29;;;;;;;5.05;1.75;;;;;;;15.80;61.90;100314.91;4462874;32;34889;-82
2022/06/15 05:22:17;;;;;;;6.32;1.65;;;;;;;15.12;64.13;100320.97;4463051;32;34062;-81
2022/06/15 05:25:10;;;;;;;4.85;1.50;;;;;;;16.02;61.64;100313.81;4451016;32;33088;-82
2022/06/15 05:28:01;;;;;;;1.77;1.35;;;;;;;16.23;60.70;100311.16;4463873;32;35281;-82
2022/06/15 05:31:04;;;;;;;4.22;1.58;;;;;;;16.96;58.67;100310.88;4458539;32;34792;-81
2022/06/15 05:33:57;;;;;;;2.60;1.45;;;;;;;17.12;58.02;100311.09;4444984;32;34109;-81
2022/06/15 05:36:46;;;;;;;4.87;1.65;;;;;;;17.21;57.41;100309.84;4437569;32;34069;-81
2022/06/15 05:39:32;;;;;;;3.58;1.33;;;;;;;16.80;58.82;100311.50;4449604;32;34684;-81
2022/06/15 05:42:19;;;;;;;4.18;1.30;;;;;;;17.61;55.36;100314.84;4446301;32;34938;-83
2022/06/15 05:45:08;;;;;;;3.72;1.30;;;;;;;17.35;55.75;100312.34;4453146;32;34193;-83
2022/06/15 05:47:55;;;;;;;3.72;1.58;;;;;;;17.64;55.59;100314.16;4464276;32;34114;-82
2022/06/15 05:50:45;;;;;;;3.05;1.20;;;;;;;17.76;56.46;100316.19;4456558;32;33362;-82
2022/06/15 05:53:35;;;;;;;4.82;1.40;;;;;;;17.76;56.32;100316.19;4461349;32;34599;-82
2022/06/15 05:56:22;;;;;;;2.92;1.20;;;;;;;18.13;55.37;100322.63;4464575;32;34203;-81
2022/06/15 05:59:10;;;;;;;2.17;1.40;;;;;;;18.28;54.27;100329.44;4464000;32;34141;-83
2022/06/15 06:01:58;;;;;;;3.85;1.17;;;;;;;18.46;54.54;100315.34;4448085;32;34660;-82
2022/06/15 06:04:46;;;;;;;2.05;1.10;;;;;;;18.62;51.89;100321.81;4463011;32;35583;-80
2022/06/15 06:07:36;;;;;;;3.92;1.40;;;;;;;18.36;51.59;100325.75;4450682;32;34275;-83
2022/06/15 06:10:24;;;;;;;4.15;1.20;;;;;;;18.79;52.22;100324.38;4443465;32;32679;-82
2022/06/15 06:13:13;;;;;;;2.75;1.58;;;;;;;19.27;48.92;100325.41;4457171;32;35391;-80
2022/06/15 06:15:59;;;;;;;4.70;1.30;;;;;;;19.63;48.26;100329.16;4453368;32;35962;-81
2022/06/15 06:18:51;;;;;;;3.97;1.30;;;;;;;19.29;46.84;100325.81;4452276;32;34288;-81
2022/06/15 06:21:43;;;;;;;3.95;1.30;;;;;;;19.62;46.03;100333.09;4451273;32;34165;-78
2022/06/15 06:24:32;;;;;;;3.80;1.17;;;;;;;19.95;44.97;100332.00;4439797;32;34203;-78
2022/06/15 06:27:21;;;;;;;5.35;1.30;;;;;;;20.13;44.95;100336.09;4451704;32;35552;-79
2022/06/15 06:30:10;;;;;;;3.08;1.17;;;;;;;19.79;47.52;100336.78;4456059;32;35468;-77
2022/06/15 06:32:56;;;;;;;3.70;1.20;;;;;;;20.20;43.93;100319.56;4437749;32;33608;-77
2022/06/15 06:35:44;;;;;;;4.90;1.25;;;;;;;20.63;42.51;100330.94;4454582;32;34188;-77
2022/06/15 06:38:36;;;;;;;3.50;1.12;;;;;;;20.73;43.52;100340.72;4440006;32;34541;-77
2022/06/15 06:41:25;;;;;;;4.80;1.17;;;;;;;20.83;42.97;100329.00;4458736;32;35095;-76
2022/06/15 06:44:22;;;;;;;2.50;1.00;;;;;;;20.84;42.62;100330.66;4442751;32;34457;-76
2022/06/15 06:47:10;;;;;;;2.55;1.10;;;;;;;20.97;42.09;100323.75;4450712;32;35445;-77
2022/06/15 06:49:59;;;;;;;3.30;1.12;;;;;;;21.22;42.58;100323.50;4438697;32;35930;-77
2022/06/15 06:52:48;;;;;;;2.72;1.60;;;;;;;21.09;42.29;100332.00;4460872;32;34216;-77
2022/06/15 06:55:34;;;;;;;5.40;1.17;;;;;;;21.41;41.77;100331.09;4460529;32;35140;-77
2022/06/15 06:58:22;;;;;;;2.30;1.15;;;;;;;21.50;39.83;100329.66;4459742;32;34704;-77
2022/06/15 07:01:09;;;;;;;4.90;1.10;;;;;;;21.29;40.83;100332.00;4456136;32;34547;-78
2022/06/15 07:03:56;;;;;;;3.55;1.90;;;;;;;21.82;40.39;100337.84;4458108;32;34982;-78
2022/06/15 07:06:45;;;;;;;6.30;1.40;;;;;;;21.75;42.10;100334.94;4440172;32;35024;-77
2022/06/15 07:09:39;;;;;;;3.25;1.40;;;;;;;21.93;41.33;100330.47;4457685;32;34603;-78
2022/06/15 07:12:33;;;;;;;5.07;1.40;;;;;;;22.05;40.73;100342.63;4443131;32;35630;-78
2022/06/15 07:15:23;;;;;;;5.18;1.30;;;;;;;21.97;40.66;100336.94;4459267;32;34778;-77
2022/06/15 07:18:10;;;;;;;3.58;1.40;;;;;;;21.93;40.65;100338.84;4449659;32;34114;-78
2022/06/15 07:21:02;;;;;;;2.42;1.33;;;;;;;22.12;40.53;100337.19;4454292;32;35578;-78
2022/06/15 07:23:55;;;;;;;3.65;1.60;;;;;;;22.24;38.78;100339.81;4455897;32;35054;-78
2022/06/15 07:26:51;;;;;;;4.40;1.70;;;;;;;22.51;39.92;100343.44;4456737;32;35374;-78
2022/06/15 07:29:38;;;;;;;6.12;1.42;;;;;;;22.46;38.98;100335.41;4442984;32;34101;-78
2022/06/15 07:32:25;;;;;;;7.37;1.65;;;;;;;22.53;39.85;100334.69;4457775;32;34724;-78
2022/06/15 07:35:21;;;;;;;3.45;1.42;;;;;;;22.09;38.55;100335.16;4455820;32;35483;-78
2022/06/15 07:38:09;;;;;;;3.17;1.40;;;;;;;21.78;38.29;100339.78;4448208;32;35438;-78
2022/06/15 07:41:16;;;;;;;4.50;1.70;;;;;;;22.03;38.10;100340.22;4459154;32;34111;-78
2022/06/15 07:44:04;;;;;;;5.12;1.75;;;;;;;22.28;38.52;100335.09;4457750;32;34366;-78
2022/06/15 07:49:54;;;;;;;4.12;1.55;;;;;;;22.53;38.74;100329.91;4460709;32;36390;-78
2022/06/15 07:50:04;;;;;;;3.00;1.42;;;;;;;22.26;39.30;100325.50;4457855;32;35199;-78
2022/06/15 07:53:13;;;;;;;4.10;1.58;;;;;;;22.50;38.81;100324.28;4451453;32;33789;-78
2022/06/15 07:56:01;;;;;;;3.72;1.80;;;;;;;22.52;36.77;100331.09;4458694;32;33296;-78
2022/06/15 07:58:48;;;;;;;5.22;1.45;;;;;;;22.61;38.66;100328.03;4464018;32;35031;-78
2022/06/15 08:01:36;;;;;;;3.58;1.40;;;;;;;23.26;39.25;100324.97;4464514;32;34098;-78
2022/06/15 08:04:26;;;;;;;4.35;1.33;;;;;;;23.38;36.90;100331.50;4450094;32;34973;-78
2022/06/15 08:07:16;;;;;;;6.78;1.70;;;;;;;23.49;37.12;100318.47;4461041;32;35603;-79
2022/06/15 08:10:04;;;;;;;4.57;2.12;;;;;;;23.24;36.40;100318.94;4444895;32;35716;-78
2022/06/15 08:12:51;;;;;;;5.65;1.73;;;;;;;23.05;37.22;100321.91;4457266;32;36270;-79
2022/06/15 08:15:41;;;;;;;3.55;1.75;;;;;;;23.06;36.61;100323.53;4459757;32;34067;-78
2022/06/15 08:18:34;;;;;;;;;;;;;;;22.83;35.48;100324.38;4443474;32;34685;-78
2022/06/15 08:21:25;;;;;;;6.45;1.77;;;;;;;22.67;35.63;100323.75;4447754;32;35543;-79
2022/06/15 08:24:12;;;;;;;3.53;1.30;;;;;;;23.47;36.43;100323.62;4448920;32;34178;-79
2022/06/15 08:26:59;;;;;;;2.90;1.30;;;;;;;22.73;35.55;100322.22;4443050;32;34154;-78
2022/06/15 08:29:47;;;;;;;4.10;2.12;;;;;;;22.99;34.58;100320.62;4454360;32;35249;-78
2022/06/15 08:32:34;;;;;;;5.95;2.15;;;;;;;23.84;35.10;100325.66;4459190;32;36080;-79
2022/06/15 08:35:23;;;;;;;4.20;1.77;;;;;;;24.04;35.17;100320.62;4456741;32;34578;-79
2022/06/15 08:38:13;;;;;;;3.67;1.67;;;;;;;23.35;34.71;100322.69;4460391;32;34877;-79
2022/06/15 08:41:04;;;;;;;3.40;1.45;;;;;;;24.37;33.48;100328.13;4453712;32;34432;-79
2022/06/15 08:44:04;;;;;;;3.87;1.48;;;;;;;24.78;33.13;100330.84;4445235;32;34388;-79
2022/06/15 08:47:13;;;;;;;5.35;1.60;;;;;;;24.61;32.01;100323.91;4440817;32;34238;-79
2022/06/15 08:50:13;;;;;;;4.15;1.45;;;;;;;24.78;31.19;100319.63;4452298;32;34095;-78
2022/06/15 08:53:14;;;;;;;5.65;1.65;;;;;;;23.44;35.02;100316.00;4443411;32;34632;-79
2022/06/15 08:56:15;;;;;;;4.72;1.80;;;;;;;24.15;34.30;100319.53;4444709;32;36550;-79
2022/06/15 08:59:10;;;;;;;8.27;1.65;;;;;;;25.02;29.68;100313.38;4446799;32;34441;-79
2022/06/15 09:02:08;;;;;;;3.62;1.40;;;;;;;25.09;32.34;100312.59;4447016;32;34097;-79
2022/06/15 09:05:02;;;;;;;3.05;1.60;;;;;;;25.46;32.91;100320.78;4454086;32;35115;-79
2022/06/15 09:08:19;;;;;;;6.70;1.90;;;;;;;23.97;31.69;100313.78;4444992;32;34484;-79
2022/06/15 09:11:25;;;;;;;4.78;2.78;;;;;;;23.21;32.79;100313.31;4455183;32;34113;-79
2022/06/15 09:14:24;;;;;;;5.00;1.40;;;;;;;24.09;33.08;100309.88;4457567;32;34998;-79
2022/06/15 09:17:21;;;;;;;5.43;1.90;;;;;;;24.68;33.57;100315.56;4443028;32;35435;-79
2022/06/15 09:20:30;;;;;;;3.67;1.75;;;;;;;24.19;31.74;100309.19;4448634;32;35703;-79
2022/06/15 09:23:42;;;;;;;5.20;2.12;;;;;;;24.46;32.33;100311.81;4443876;32;35399;-79
2022/06/15 09:26:37;;;;;;;4.90;2.30;;;;;;;24.79;31.31;100304.41;4441155;32;34146;-79
2022/06/15 09:29:31;;;;;;;6.30;1.80;;;;;;;25.01;31.07;100300.53;4446296;32;34474;-79
2022/06/15 09:32:23;;;;;;;2.58;1.67;;;;;;;23.82;31.62;100305.63;4447454;32;35006;-79
2022/06/15 09:35:17;;;;;;;4.22;1.90;;;;;;;24.68;31.89;100293.97;4446301;32;35429;-79
2022/06/15 09:38:12;;;;;;;2.67;1.50;;;;;;;23.97;32.40;100302.59;4448094;32;34722;-78
2022/06/15 09:41:36;;;;;;;3.20;1.90;;;;;;;24.59;30.51;100310.31;4455171;32;34680;-79
2022/06/15 09:44:34;;;;;;;4.75;1.80;;;;;;;23.41;34.29;100302.78;4458537;32;34961;-79
2022/06/15 09:47:50;;;;;;;3.83;2.00;;;;;;;24.31;32.74;100298.88;4455511;32;34591;-79
2022/06/15 09:50:47;;;;;;;3.42;1.80;;;;;;;25.21;31.91;100297.44;4451731;32;35173;-79
2022/06/15 09:53:45;;;;;;;6.72;3.12;;;;;;;24.09;31.62;100295.91;4456436;32;34121;-78
2022/06/15 09:56:33;;;;;;;2.87;1.67;;;;;;;23.92;32.28;100293.75;4443190;32;34985;-78
2022/06/15 09:59:26;;;;;;;4.10;1.73;;;;;;;24.99;32.21;100294.53;4446909;32;35016;-79
2022/06/15 10:02:25;;;;;;;3.65;1.80;;;;;;;24.58;31.33;100289.09;4451467;32;34737;-79
2022/06/15 10:05:30;;;;;;;4.18;1.90;;;;;;;24.54;31.41;100282.66;4448850;32;35550;-78
2022/06/15 10:08:17;;;;;;;8.07;1.60;;;;;;;25.88;31.36;100280.00;4451153;32;35893;-78
2022/06/15 10:11:17;;;;;;;4.25;1.80;;;;;;;25.09;30.21;100274.13;4457034;32;35384;-79
2022/06/15 10:14:23;;;;;;;2.40;1.62;;;;;;;23.45;32.54;100281.22;4449472;32;34089;-77
2022/06/15 10:17:22;;;;;;;3.12;1.52;;;;;;;25.11;30.91;100265.34;4454050;32;35659;-78
2022/06/15 10:23:53;;;;;;;4.40;1.70;;;;;;;24.87;30.36;100267.66;4454942;32;34566;-78
2022/06/15 10:26:45;;;;;;;3.47;1.70;;;;;;;26.33;30.01;100266.38;4442108;32;34043;-78
2022/06/15 10:29:34;;;;;;;4.82;1.90;;;;;;;27.01;28.95;100265.38;4448757;32;35379;-78
2022/06/15 10:32:25;;;;;;;3.60;1.77;;;;;;;26.89;28.46;100264.63;4434349;32;155613;-78
2022/06/15 10:35:18;;;;;;;4.72;2.45;;;;;;;25.57;31.11;100261.88;4452415;32;34650;-77
2022/06/15 10:38:11;;;;;;;4.75;2.03;;;;;;;26.67;30.07;100263.13;4462626;32;35148;-77
2022/06/15 10:41:45;;;;;;;3.15;1.98;;;;;;;25.84;29.48;100253.13;4448910;32;34663;-77
2022/06/15 10:44:32;;;;;;;2.65;1.50;;;;;;;26.46;29.33;100259.09;4456351;32;36200;-78
2022/06/15 10:47:22;;;;;;;2.75;1.62;;;;;;;27.01;29.89;100248.50;4454518;32;35027;-78
2022/06/15 10:50:26;;;;;;;3.20;1.90;;;;;;;27.57;28.27;100243.81;4455346;32;34455;-78
2022/06/15 10:53:48;;;;;;;3.33;1.70;;;;;;;28.47;29.15;100246.75;4448770;32;33495;-78
2022/06/15 11:03:15;;;;;;;3.20;1.95;;;;;;;29.04;24.78;100239.66;4445109;32;34923;-78
2022/06/15 11:06:04;;;;;;;3.30;1.58;;;;;;;29.09;25.55;100248.47;4455063;32;35647;-78
2022/06/15 11:08:51;;;;;;;4.22;1.77;;;;;;;28.34;25.29;100228.72;4458513;32;35589;-78
2022/06/15 11:11:54;;;;;;;3.85;1.70;;;;;;;27.94;30.10;100236.75;4454025;32;34629;-78
2022/06/15 11:14:50;;;;;;;3.95;1.67;;;;;;;27.48;26.17;100226.59;4456528;32;34113;-77
2022/06/15 11:21:04;;;;;;;4.10;1.75;;;;;;;27.72;27.46;100225.62;4454033;32;35014;-77
2022/06/15 11:24:00;;;;;;;3.22;1.40;;;;;;;27.09;28.27;100221.97;4442560;32;35726;-77
2022/06/15 11:26:54;;;;;;;2.92;1.70;;;;;;;27.71;29.54;100220.41;4441187;32;34383;-77
2022/06/15 11:30:19;;;;;;;2.10;1.40;;;;;;;27.40;26.18;100213.78;4456009;32;34218;-77
2022/06/15 11:33:34;;;;;;;6.25;2.17;;;;;;;26.88;26.55;100208.81;4443876;32;34960;-77
2022/06/15 11:36:53;;;;;;;6.40;1.83;;;;;;;27.39;27.44;100200.94;4459463;32;35458;-79
2022/06/15 11:39:49;;;;;;;2.58;1.70;;;;;;;25.17;29.86;100206.91;4444615;32;34991;-78
2022/06/15 11:42:37;;;;;;;5.30;1.70;;;;;;;25.65;29.81;100209.41;4456880;32;35867;-79
2022/06/15 11:45:48;;;;;;;2.55;1.40;;;;;;;26.59;28.97;100206.13;4458635;32;34751;-79
2022/06/15 11:49:03;;;;;;;3.55;1.70;;;;;;;27.52;28.02;100204.84;4449225;32;33579;-78
2022/06/15 11:52:17;;;;;;;2.20;1.30;;;;;;;27.70;26.14;100199.91;4458225;32;35096;-79
2022/06/15 11:55:39;;;;;;;3.65;1.67;;;;;;;27.50;26.14;100201.66;4442676;32;35374;-77
2022/06/15 11:58:36;;;;;;;1.80;1.40;;;;;;;28.01;26.14;100202.91;4436589;32;36032;-79
2022/06/15 12:02:02;;;;;;;5.85;1.60;;;;;;;27.61;28.17;100199.59;4448851;32;34458;-77
2022/06/15 12:05:09;;;;;;;2.20;1.55;;;;;;;27.13;28.17;100192.63;4458100;32;35121;-79
2022/06/15 12:08:31;;;;;;;5.45;1.35;;;;;;;26.99;29.96;100195.50;4444027;32;34778;-79
2022/06/15 12:14:32;;;;;;;3.62;1.42;;;;;;;27.92;27.38;100194.09;4457650;32;35080;-77
2022/06/15 12:17:25;;;;;;;4.72;1.48;;;;;;;27.38;28.46;100188.91;4459618;32;35022;-77
2022/06/15 12:21:01;;;;;;;2.47;1.45;;;;;;;26.74;27.52;100184.38;4462446;32;34734;-78
2022/06/15 12:24:05;;;;;;;2.47;1.60;;;;;;;28.76;28.12;100181.56;4442609;32;36056;-78
2022/06/15 12:27:33;;;;;;;3.05;1.50;;;;;;;28.93;25.19;100166.44;4464493;32;34481;-77
2022/06/15 12:30:47;;;;;;;2.60;1.42;;;;;;;27.93;26.76;100190.09;4460890;32;35110;-78
2022/06/15 12:33:53;;;;;;;3.42;1.45;;;;;;;28.27;27.50;100178.09;4456008;32;34655;-77
2022/06/15 12:36:48;;;;;;;3.42;1.40;;;;;;;27.33;27.60;100181.69;4449505;32;35542;-80
2022/06/15 12:40:03;;;;;;;1.95;1.52;;;;;;;29.06;25.30;100163.84;4451284;32;34000;-80
2022/06/15 12:43:09;;;;;;;2.22;1.40;;;;;;;29.20;29.32;100168.50;4437908;32;35046;-79
2022/06/15 13:39:44;;;;;;;2.78;1.40;;;;;;;28.80;26.96;100137.19;4255027;33;34614;-77
2022/06/15 13:42:40;;;;;;;3.50;1.40;;;;;;;29.20;24.91;100137.47;4262353;33;35332;-78
2022/06/15 13:45:26;;;;;;;3.62;1.30;;;;;;;28.02;26.44;100131.25;4260820;33;34722;-78
2022/06/15 13:48:15;;;;;;;3.28;1.35;;;;;;;28.69;25.36;100140.19;4261953;33;35655;-79
2022/06/15 13:51:07;;;;;;;3.58;1.50;;;;;;;28.17;26.25;100143.16;4257141;33;34924;-78
2022/06/15 13:54:15;;;;;;;2.03;1.50;;;;;;;28.32;27.82;100143.78;4245173;33;35388;-77
2022/06/15 13:57:17;;;;;;;2.42;1.25;;;;;;;28.32;26.41;100139.00;4260945;33;34718;-77
2022/06/15 14:00:22;;;;;;;2.75;1.20;;;;;;;29.14;24.56;100132.31;4258205;33;34154;-78
2022/06/15 14:03:24;;;;;;;2.15;1.62;;;;;;;28.55;25.70;100124.25;4251352;33;34665;-78
2022/06/15 14:06:43;;;;;;;2.72;1.33;;;;;;;27.78;26.80;100125.44;4260689;33;32995;-77
2022/06/15 14:09:44;;;;;;;3.85;1.30;;;;;;;28.09;27.05;100119.94;4259564;33;34003;-77
2022/06/15 14:12:49;;;;;;;2.75;1.40;;;;;;;28.63;24.41;100120.12;4261420;33;36166;-78
2022/06/15 14:16:15;;;;;;;5.57;1.30;;;;;;;28.10;24.75;100127.16;4282653;32;35036;-77
2022/06/15 14:19:03;;;;;;;2.72;1.23;;;;;;;27.97;24.91;100120.44;4355259;32;34083;-76
2022/06/15 14:22:01;;;;;;;2.72;1.20;;;;;;;29.10;24.82;100113.84;4362702;32;34112;-77
2022/06/15 14:24:59;;;;;;;2.45;1.20;;;;;;;29.48;23.96;100117.25;4359759;32;34382;-78
2022/06/15 14:27:55;;;;;;;2.58;1.10;;;;;;;28.40;25.84;100108.69;4349968;32;34982;-76
2022/06/15 14:30:44;;;;;;;2.33;1.02;;;;;;;27.73;26.00;100117.44;4352767;32;34921;-77
2022/06/15 14:33:31;;;;;;;2.58;1.20;;;;;;;28.63;24.90;100111.66;4347989;32;33607;-76
2022/06/15 14:36:20;;;;;;;4.80;1.30;;;;;;;27.77;27.49;100111.75;4350384;32;33611;-76
2022/06/15 14:39:12;;;;;;;2.42;1.30;;;;;;;29.10;25.62;100108.97;4350622;32;35685;-75
2022/06/15 14:42:06;;;;;;;2.87;1.25;;;;;;;29.36;25.93;100104.53;4351133;32;34495;-76
2022/06/15 14:44:56;;;;;;;2.05;1.10;;;;;;;30.06;24.11;100099.31;4353825;32;34227;-76
2022/06/15 14:47:53;;;;;;;3.78;1.33;;;;;;;28.08;25.89;100104.22;4348991;32;34195;-76
2022/06/15 14:50:43;;;;;;;2.47;1.45;;;;;;;28.83;26.17;100102.50;4348662;32;34949;-76
2022/06/15 14:53:37;;;;;;;4.12;1.40;;;;;;;29.52;25.69;100095.41;4348891;32;35442;-76